METAR Data
IDs: Format: Raw Decoded Include TAF

Data at: 0550 UTC 19 Aug 2019

KVSF 190518Z AUTO 00000KT 3SM BR BKN004 21/20 A2993 RMK AO2 T02060200
KVSF 190454Z AUTO 15003KT 10SM SCT005 21/19 A2992 RMK AO2 RAE08 SLP130 P0000 T02060194 403060172
KVSF 190436Z AUTO 00000KT 10SM FEW005 21/20 A2992 RMK AO2 RAE08 P0000 T02060200
KVSF 190354Z AUTO 00000KT 10SM -RA SCT110 21/20 A2993 RMK AO2 RAE11B52 SLP134 P0000 T02110200
KVSF 190254Z AUTO 17005KT 9SM -RA BKN100 OVC120 22/21 A2998 RMK AO2 LTG DSNT E-SW SLP149 P0008 60010 T02220206 53009
KVSF 190244Z AUTO 17004KT 6SM -RA BR BKN100 22/21 A2997 RMK AO2 LTG DSNT E-SW P0007 T02220211
KVSF 190154Z AUTO 00000KT 10SM VCTS -RA FEW034 SCT048 BKN100 22/21 A2996 RMK AO2 LTG DSNT E-SW RAB23 SLP143 P0002 T02170206
KVSF 190129Z AUTO 04003KT 10SM VCTS -RA FEW120 23/21 A2996 RMK AO2 LTG DSNT ALQDS RAB23 P0000 T02280206
KVSF 190054Z AUTO 00000KT 10SM FEW060 SCT080 BKN090 23/20 A2996 RMK AO2 LTG DSNT SW SLP144 T02330200
KVSF 182354Z AUTO 00000KT 10SM SCT070 SCT095 BKN120 24/20 A2995 RMK AO2 SLP141 T02390200 10306 20239 56006
KVSF 182254Z AUTO 33003KT 10SM CLR 26/20 A2996 RMK AO2 SLP143 T02560200
KVSF 182154Z AUTO 12004KT 10SM BKN055 BKN070 28/19 A2996 RMK AO2 SLP143 T02830189
KVSF 182054Z AUTO 26005KT 10SM CLR 30/16 A2997 RMK AO2 SLP146 T03000161 56011
KVSF 181954Z AUTO VRB06KT 10SM FEW049 30/13 A2997 RMK AO2 SLP147 T03000133
KVSF 181854Z AUTO 24006KT 10SM FEW050 29/17 A2999 RMK AO2 SLP154 T02940167
KVSF 181754Z AUTO 15007KT 10SM FEW040 FEW055 28/18 A3000 RMK AO2 SLP157 T02830183 10289 20172 56016
KVSF 181654Z AUTO VRB03KT 10SM CLR 27/19 A3001 RMK AO2 SLP158 T02670189
KVSF 181554Z AUTO 00000KT 10SM CLR 24/19 A3003 RMK AO2 SLP166 T02440194
KVSF 181454Z AUTO 00000KT 10SM FEW013 23/18 A3005 RMK AO2 SLP174 T02280178 58001
KVSF 181442Z AUTO 00000KT 10SM SCT012 23/18 A3005 RMK AO2 T02280178
KVSF 181424Z AUTO 00000KT 10SM BKN011 21/18 A3005 RMK AO2 T02110178
KVSF 181354Z AUTO 00000KT 10SM OVC007 20/17 A3007 RMK AO2 SLP180 T02000172
KVSF 181326Z AUTO 00000KT 10SM OVC006 19/17 A3005 RMK AO2 T01890172
KVSF 181254Z AUTO 32003KT 10SM OVC005 18/17 A3005 RMK AO2 SLP177 T01830167
KVSF 181236Z AUTO 27003KT 10SM OVC005 18/17 A3006 RMK AO2 T01780167
KVSF 181154Z AUTO 29004KT 9SM OVC004 18/17 A3005 RMK AO2 SLP176 70031 T01780167 10183 20172 53014
KVSF 181054Z AUTO 20003KT 9SM OVC003 17/17 A3003 RMK AO2 SLP167 T01720167
KVSF 181033Z AUTO 00000KT 3SM BR OVC004 17/17 A3002 RMK AO2 T01720167
KVSF 181019Z AUTO 00000KT 8SM OVC005 17/17 A3002 RMK AO2 T01720167
KVSF 180954Z AUTO 27004KT 10SM OVC007 18/17 A3002 RMK AO2 SLP164 T01780167
KVSF 180854Z AUTO 00000KT 10SM OVC008 18/17 A3001 RMK AO2 CIG 004V010 SLP160 T01780172 55005
KVSF 180754Z AUTO 00000KT 10SM OVC008 18/17 A3000 RMK AO2 SLP158 T01830172
KVSF 180654Z AUTO 00000KT 10SM OVC007 18/17 A3002 RMK AO2 SLP162 T01830172
KVSF 180605Z AUTO 00000KT 10SM FEW003 OVC008 18/17 A3002 RMK AO2 CIG 007V012 T01780172
KVSF 180554Z AUTO 00000KT 10SM FEW003 BKN010 OVC013 18/17 A3003 RMK AO2 SLP165 60004 T01780172 10194 20178 53001
KVSF 180545Z AUTO 00000KT 10SM SCT003 OVC013 18/17 A3003 RMK AO2 T01780172
KVSF 180538Z AUTO 00000KT 2 1/2SM BR SCT003 OVC014 18/17 A3003 RMK AO2 VIS 3/4V5 T01780172
KVSF 180507Z AUTO 27003KT 1 1/2SM BR OVC003 18/17 A3002 RMK AO2 T01780172
KVSF 180454Z AUTO 00000KT 3SM BR BKN003 18/17 A3002 RMK AO2 SLP164 T01780167 402940172
KVSF 180452Z AUTO 26003KT 5SM BR BKN003 18/17 A3003 RMK AO2
KVSF 180422Z AUTO 00000KT 10SM SCT004 SCT110 18/18 A3003 RMK AO2 T01830178
KVSF 180414Z AUTO 00000KT 10SM BKN004 BKN110 18/18 A3003 RMK AO2 T01830178
KVSF 180354Z AUTO 00000KT 10SM SCT004 SCT020 18/18 A3003 RMK AO2 SLP166 T01830178
KVSF 180345Z AUTO 00000KT 10SM SCT020 18/18 A3002 RMK AO2 T01830178
KVSF 180332Z AUTO 00000KT 10SM SCT004 BKN020 19/18 A3001 RMK AO2 T01890178
KVSF 180313Z AUTO 00000KT 10SM OVC003 19/18 A3001 RMK AO2 CIG 002V007 T01890183
KVSF 180303Z AUTO 00000KT 10SM BKN005 OVC120 19/18 A3002 RMK AO2 CIG 002V008 T01890183
KVSF 180254Z AUTO 00000KT 10SM BKN006 BKN120 19/18 A3002 RMK AO2 CIG 004V008 SLP163 60004 T01890183 51008
KVSF 180213Z AUTO 00000KT 9SM SCT006 19/18 A3002 RMK AO2 T01890183
KVSF 180154Z AUTO 00000KT 10SM CLR 19/18 A3001 RMK AO2 SLP162 T01940183
KVSF 180107Z AUTO 15003KT 10SM SCT007 SCT012 19/18 A3001 RMK AO2 LTG DSNT E T01940183
KVSF 180054Z AUTO 00000KT 10SM CLR 19/18 A3000 RMK AO2 LTG DSNT E AND SE RAE35 SLP156 P0004 T01940183
KVSF 180008Z AUTO 08004KT 6SM -RA BR BKN095 BKN110 19/18 A2998 RMK AO2 LTG DSNT NE-S P0004 T01940183
KVSF 172354Z AUTO 06003KT 9SM VCTS -RA FEW055 BKN100 OVC120 20/18 A2999 RMK AO2 PK WND 28026/2313 LTG DSNT ALQDS RAB13 TSB02E48 SLP155 P0027 60027 T02000183 10294 20194 53016
KVSF 172332Z AUTO 23003KT 3SM TSRA BR FEW036 BKN047 BKN070 20/18 A3002 RMK AO2 PK WND 28026/2313 LTG DSNT ALQDS RAB13 TSB02 P0024 T02000183
KVSF 172317Z AUTO 28011G26KT 1 3/4SM +TSRA BR FEW017 SCT034 BKN055 21/18 A3002 RMK AO2 PK WND 28026/2313 LTG DSNT ALQDS RAB13 TSB02 PRESRR P0013 T02060183
KVSF 172308Z AUTO 23007KT 200V270 10SM TS CLR 26/19 A2998 RMK AO2 LTG DSNT ALQDS TSB02 PRESRR T02560189
KVSF 172254Z AUTO 21004KT 10SM VCTS CLR 26/19 A2996 RMK AO2 LTG DSNT W-N SLP142 T02560189
KVSF 172154Z AUTO 16008KT 10SM BKN060 BKN070 27/18 A2995 RMK AO2 LTG DSNT N AND NW SLP140 T02720183
KVSF 172054Z AUTO 17010KT 130V200 10SM FEW055 28/19 A2995 RMK AO2 SLP138 T02830189 56022
KVSF 172040Z AUTO 17013G17KT 10SM FEW041 SCT050 28/19 A2995 RMK AO2 T02830189
KVSF 172025Z AUTO 15010KT 10SM VCTS BKN043 OVC060 28/19 A2995 RMK AO2 T02780189
KVSF 171954Z AUTO 13009KT 10SM SCT040 BKN048 28/19 A2997 RMK AO2 SLP145 T02780189
KVSF 171854Z AUTO 14009KT 10SM FEW039 29/18 A2999 RMK AO2 SLP152 T02890183
KVSF 171754Z AUTO 14009KT 10SM FEW033 SCT041 BKN049 27/19 A3001 RMK AO2 SLP161 T02720189 10278 20200 58013